sensor_id;sensor_type;location;lat;lon;timestamp;P1;durP1;ratioP1;P2;durP2;ratioP2
27839;SDS011;15207;42.182;24.308;2023-04-12T00:02:13;5.15;;;3.90;;
27839;SDS011;15207;42.182;24.308;2023-04-12T00:04:38;5.85;;;3.97;;
27839;SDS011;15207;42.182;24.308;2023-04-12T00:07:05;5.88;;;4.13;;
27839;SDS011;15207;42.182;24.308;2023-04-12T00:09:34;5.27;;;3.80;;
27839;SDS011;15207;42.182;24.308;2023-04-12T00:12:00;5.20;;;3.55;;
27839;SDS011;15207;42.182;24.308;2023-04-12T00:14:27;6.00;;;3.60;;
27839;SDS011;15207;42.182;24.308;2023-04-12T00:16:53;5.05;;;3.75;;
27839;SDS011;15207;42.182;24.308;2023-04-12T00:19:18;6.20;;;4.10;;
27839;SDS011;15207;42.182;24.308;2023-04-12T00:21:44;4.10;;;3.20;;
27839;SDS011;15207;42.182;24.308;2023-04-12T00:24:10;5.10;;;3.80;;
27839;SDS011;15207;42.182;24.308;2023-04-12T00:29:00;6.10;;;4.10;;
27839;SDS011;15207;42.182;24.308;2023-04-12T00:31:26;5.32;;;3.28;;
27839;SDS011;15207;42.182;24.308;2023-04-12T00:33:52;5.18;;;3.55;;
27839;SDS011;15207;42.182;24.308;2023-04-12T00:36:18;5.25;;;3.85;;
27839;SDS011;15207;42.182;24.308;2023-04-12T00:38:43;8.30;;;4.18;;
27839;SDS011;15207;42.182;24.308;2023-04-12T00:41:13;5.17;;;3.77;;
27839;SDS011;15207;42.182;24.308;2023-04-12T00:43:39;5.30;;;3.40;;
27839;SDS011;15207;42.182;24.308;2023-04-12T00:46:08;18.95;;;4.93;;
27839;SDS011;15207;42.182;24.308;2023-04-12T00:48:36;7.30;;;3.80;;
27839;SDS011;15207;42.182;24.308;2023-04-12T00:51:04;6.20;;;3.55;;
27839;SDS011;15207;42.182;24.308;2023-04-12T00:53:31;5.50;;;4.00;;
27839;SDS011;15207;42.182;24.308;2023-04-12T00:55:58;7.10;;;3.90;;
27839;SDS011;15207;42.182;24.308;2023-04-12T00:58:23;5.40;;;3.65;;
27839;SDS011;15207;42.182;24.308;2023-04-12T01:03:16;5.90;;;3.50;;
27839;SDS011;15207;42.182;24.308;2023-04-12T01:08:52;5.50;;;3.88;;
27839;SDS011;15207;42.182;24.308;2023-04-12T01:11:37;5.85;;;3.30;;
27839;SDS011;15207;42.182;24.308;2023-04-12T01:16:50;5.17;;;3.60;;
27839;SDS011;15207;42.182;24.308;2023-04-12T01:22:43;5.20;;;3.80;;
27839;SDS011;15207;42.182;24.308;2023-04-12T01:28:07;5.85;;;4.10;;
27839;SDS011;15207;42.182;24.308;2023-04-12T01:30:35;6.45;;;4.20;;
27839;SDS011;15207;42.182;24.308;2023-04-12T01:33:04;6.30;;;3.50;;
27839;SDS011;15207;42.182;24.308;2023-04-12T01:35:31;5.72;;;3.85;;
27839;SDS011;15207;42.182;24.308;2023-04-12T01:37:58;5.68;;;3.83;;
27839;SDS011;15207;42.182;24.308;2023-04-12T01:40:25;5.20;;;3.65;;
27839;SDS011;15207;42.182;24.308;2023-04-12T01:43:06;7.32;;;3.95;;
27839;SDS011;15207;42.182;24.308;2023-04-12T01:47:58;5.63;;;3.42;;
27839;SDS011;15207;42.182;24.308;2023-04-12T01:50:26;5.07;;;3.80;;
27839;SDS011;15207;42.182;24.308;2023-04-12T01:53:18;4.95;;;3.70;;
27839;SDS011;15207;42.182;24.308;2023-04-12T01:55:47;5.70;;;3.85;;
27839;SDS011;15207;42.182;24.308;2023-04-12T01:58:20;4.60;;;3.60;;
27839;SDS011;15207;42.182;24.308;2023-04-12T02:00:47;5.10;;;3.60;;
27839;SDS011;15207;42.182;24.308;2023-04-12T02:03:14;5.70;;;3.50;;
27839;SDS011;15207;42.182;24.308;2023-04-12T02:05:42;8.40;;;4.10;;
27839;SDS011;15207;42.182;24.308;2023-04-12T02:08:07;6.80;;;3.72;;
27839;SDS011;15207;42.182;24.308;2023-04-12T02:10:33;6.23;;;3.60;;
27839;SDS011;15207;42.182;24.308;2023-04-12T02:13:01;7.15;;;3.40;;
27839;SDS011;15207;42.182;24.308;2023-04-12T02:15:28;4.50;;;3.40;;
27839;SDS011;15207;42.182;24.308;2023-04-12T02:17:53;8.15;;;3.95;;
27839;SDS011;15207;42.182;24.308;2023-04-12T02:20:19;5.30;;;3.85;;
27839;SDS011;15207;42.182;24.308;2023-04-12T02:25:12;5.93;;;3.90;;
27839;SDS011;15207;42.182;24.308;2023-04-12T02:27:37;11.15;;;3.83;;
27839;SDS011;15207;42.182;24.308;2023-04-12T02:32:29;6.45;;;4.00;;
27839;SDS011;15207;42.182;24.308;2023-04-12T02:34:55;4.45;;;3.90;;
27839;SDS011;15207;42.182;24.308;2023-04-12T02:37:21;4.80;;;3.70;;
27839;SDS011;15207;42.182;24.308;2023-04-12T02:39:48;6.85;;;3.75;;
27839;SDS011;15207;42.182;24.308;2023-04-12T02:42:14;6.15;;;4.00;;
27839;SDS011;15207;42.182;24.308;2023-04-12T02:44:39;5.10;;;3.70;;
27839;SDS011;15207;42.182;24.308;2023-04-12T02:47:07;6.17;;;3.90;;
27839;SDS011;15207;42.182;24.308;2023-04-12T02:49:32;6.90;;;3.75;;
27839;SDS011;15207;42.182;24.308;2023-04-12T02:51:58;7.43;;;3.88;;
27839;SDS011;15207;42.182;24.308;2023-04-12T02:54:23;6.00;;;3.70;;
27839;SDS011;15207;42.182;24.308;2023-04-12T02:56:49;5.65;;;3.70;;
27839;SDS011;15207;42.182;24.308;2023-04-12T02:59:15;6.83;;;3.87;;
27839;SDS011;15207;42.182;24.308;2023-04-12T03:01:40;5.72;;;3.53;;
27839;SDS011;15207;42.182;24.308;2023-04-12T03:04:10;6.55;;;4.15;;
27839;SDS011;15207;42.182;24.308;2023-04-12T03:06:36;5.00;;;3.75;;
27839;SDS011;15207;42.182;24.308;2023-04-12T03:09:01;4.75;;;3.75;;
27839;SDS011;15207;42.182;24.308;2023-04-12T03:11:26;7.50;;;4.30;;
27839;SDS011;15207;42.182;24.308;2023-04-12T03:13:52;7.13;;;4.13;;
27839;SDS011;15207;42.182;24.308;2023-04-12T03:16:19;7.05;;;4.00;;
27839;SDS011;15207;42.182;24.308;2023-04-12T03:18:47;8.35;;;4.40;;
27839;SDS011;15207;42.182;24.308;2023-04-12T03:21:14;7.43;;;4.18;;
27839;SDS011;15207;42.182;24.308;2023-04-12T03:26:06;7.00;;;4.20;;
27839;SDS011;15207;42.182;24.308;2023-04-12T03:28:31;6.30;;;4.00;;
27839;SDS011;15207;42.182;24.308;2023-04-12T03:30:57;6.70;;;4.20;;
27839;SDS011;15207;42.182;24.308;2023-04-12T03:33:22;10.70;;;4.80;;
27839;SDS011;15207;42.182;24.308;2023-04-12T03:35:48;6.32;;;4.38;;
27839;SDS011;15207;42.182;24.308;2023-04-12T03:38:14;6.85;;;4.15;;
27839;SDS011;15207;42.182;24.308;2023-04-12T03:40:40;8.75;;;4.35;;
27839;SDS011;15207;42.182;24.308;2023-04-12T03:43:05;8.68;;;4.60;;
27839;SDS011;15207;42.182;24.308;2023-04-12T03:45:31;6.43;;;4.38;;
27839;SDS011;15207;42.182;24.308;2023-04-12T03:47:57;8.80;;;5.10;;
27839;SDS011;15207;42.182;24.308;2023-04-12T03:50:23;7.40;;;5.00;;
27839;SDS011;15207;42.182;24.308;2023-04-12T03:52:48;7.70;;;4.60;;
27839;SDS011;15207;42.182;24.308;2023-04-12T03:55:14;8.88;;;5.22;;
27839;SDS011;15207;42.182;24.308;2023-04-12T03:57:42;7.13;;;4.68;;
27839;SDS011;15207;42.182;24.308;2023-04-12T04:00:08;7.43;;;4.67;;
27839;SDS011;15207;42.182;24.308;2023-04-12T04:02:34;9.50;;;4.75;;
27839;SDS011;15207;42.182;24.308;2023-04-12T04:05:00;7.20;;;4.80;;
27839;SDS011;15207;42.182;24.308;2023-04-12T04:07:26;7.53;;;4.68;;
27839;SDS011;15207;42.182;24.308;2023-04-12T04:09:55;9.60;;;5.20;;
27839;SDS011;15207;42.182;24.308;2023-04-12T04:12:20;7.45;;;4.50;;
27839;SDS011;15207;42.182;24.308;2023-04-12T04:14:46;8.32;;;4.80;;
27839;SDS011;15207;42.182;24.308;2023-04-12T04:17:11;9.40;;;5.15;;
27839;SDS011;15207;42.182;24.308;2023-04-12T04:19:37;8.50;;;4.78;;
27839;SDS011;15207;42.182;24.308;2023-04-12T04:22:03;7.38;;;4.63;;
27839;SDS011;15207;42.182;24.308;2023-04-12T04:24:28;8.85;;;5.20;;
27839;SDS011;15207;42.182;24.308;2023-04-12T04:26:54;6.55;;;4.30;;
27839;SDS011;15207;42.182;24.308;2023-04-12T04:29:20;8.45;;;5.20;;
27839;SDS011;15207;42.182;24.308;2023-04-12T04:31:45;7.93;;;4.93;;
27839;SDS011;15207;42.182;24.308;2023-04-12T04:34:11;8.93;;;5.25;;
27839;SDS011;15207;42.182;24.308;2023-04-12T04:36:37;16.45;;;5.63;;
27839;SDS011;15207;42.182;24.308;2023-04-12T04:39:05;8.70;;;5.10;;
27839;SDS011;15207;42.182;24.308;2023-04-12T04:41:31;11.73;;;5.40;;
27839;SDS011;15207;42.182;24.308;2023-04-12T04:44:07;11.73;;;5.25;;
27839;SDS011;15207;42.182;24.308;2023-04-12T04:46:37;7.35;;;4.85;;
27839;SDS011;15207;42.182;24.308;2023-04-12T04:49:03;10.35;;;5.75;;
27839;SDS011;15207;42.182;24.308;2023-04-12T04:51:29;10.00;;;5.00;;
27839;SDS011;15207;42.182;24.308;2023-04-12T04:53:55;6.80;;;4.80;;
27839;SDS011;15207;42.182;24.308;2023-04-12T04:56:22;9.63;;;4.97;;
27839;SDS011;15207;42.182;24.308;2023-04-12T04:58:49;12.40;;;5.50;;
27839;SDS011;15207;42.182;24.308;2023-04-12T05:01:14;10.60;;;5.60;;
27839;SDS011;15207;42.182;24.308;2023-04-12T05:03:41;9.60;;;5.05;;
27839;SDS011;15207;42.182;24.308;2023-04-12T05:06:09;12.30;;;5.80;;
27839;SDS011;15207;42.182;24.308;2023-04-12T05:08:35;15.60;;;5.75;;
27839;SDS011;15207;42.182;24.308;2023-04-12T05:11:00;10.60;;;5.60;;
27839;SDS011;15207;42.182;24.308;2023-04-12T05:13:26;10.90;;;6.25;;
27839;SDS011;15207;42.182;24.308;2023-04-12T05:15:51;9.05;;;6.45;;
27839;SDS011;15207;42.182;24.308;2023-04-12T05:18:17;13.45;;;6.10;;
27839;SDS011;15207;42.182;24.308;2023-04-12T05:20:43;18.65;;;7.15;;
27839;SDS011;15207;42.182;24.308;2023-04-12T05:23:09;10.30;;;5.70;;
27839;SDS011;15207;42.182;24.308;2023-04-12T05:25:35;10.70;;;6.50;;
27839;SDS011;15207;42.182;24.308;2023-04-12T05:28:01;11.63;;;6.47;;
27839;SDS011;15207;42.182;24.308;2023-04-12T05:30:26;8.98;;;6.05;;
27839;SDS011;15207;42.182;24.308;2023-04-12T05:32:52;12.82;;;6.95;;
27839;SDS011;15207;42.182;24.308;2023-04-12T05:35:18;9.77;;;6.57;;
27839;SDS011;15207;42.182;24.308;2023-04-12T05:37:43;13.77;;;6.40;;
27839;SDS011;15207;42.182;24.308;2023-04-12T05:40:09;11.25;;;6.10;;
27839;SDS011;15207;42.182;24.308;2023-04-12T05:42:35;11.15;;;6.10;;
27839;SDS011;15207;42.182;24.308;2023-04-12T05:45:04;11.70;;;6.63;;
27839;SDS011;15207;42.182;24.308;2023-04-12T05:47:30;9.65;;;6.07;;
27839;SDS011;15207;42.182;24.308;2023-04-12T05:49:56;11.93;;;6.40;;
27839;SDS011;15207;42.182;24.308;2023-04-12T05:52:22;10.10;;;6.20;;
27839;SDS011;15207;42.182;24.308;2023-04-12T05:54:47;9.75;;;6.00;;
27839;SDS011;15207;42.182;24.308;2023-04-12T05:57:13;11.05;;;5.63;;
27839;SDS011;15207;42.182;24.308;2023-04-12T05:59:39;9.10;;;5.60;;
27839;SDS011;15207;42.182;24.308;2023-04-12T06:02:05;15.10;;;6.20;;
27839;SDS011;15207;42.182;24.308;2023-04-12T06:04:32;9.27;;;6.15;;
27839;SDS011;15207;42.182;24.308;2023-04-12T06:06:57;10.23;;;5.88;;
27839;SDS011;15207;42.182;24.308;2023-04-12T06:09:23;9.93;;;5.93;;
27839;SDS011;15207;42.182;24.308;2023-04-12T06:11:49;12.07;;;5.72;;
27839;SDS011;15207;42.182;24.308;2023-04-12T06:14:16;11.00;;;6.30;;
27839;SDS011;15207;42.182;24.308;2023-04-12T06:16:41;10.25;;;5.80;;
27839;SDS011;15207;42.182;24.308;2023-04-12T06:19:07;10.48;;;6.32;;
27839;SDS011;15207;42.182;24.308;2023-04-12T06:21:33;7.55;;;5.05;;
27839;SDS011;15207;42.182;24.308;2023-04-12T06:23:58;6.00;;;4.20;;
27839;SDS011;15207;42.182;24.308;2023-04-12T06:26:24;6.55;;;3.80;;
27839;SDS011;15207;42.182;24.308;2023-04-12T06:28:49;5.78;;;3.60;;
27839;SDS011;15207;42.182;24.308;2023-04-12T06:31:15;9.95;;;3.60;;
27839;SDS011;15207;42.182;24.308;2023-04-12T06:33:41;5.85;;;3.35;;
27839;SDS011;15207;42.182;24.308;2023-04-12T06:36:07;4.10;;;2.50;;
27839;SDS011;15207;42.182;24.308;2023-04-12T06:38:33;4.20;;;2.55;;
27839;SDS011;15207;42.182;24.308;2023-04-12T06:40:58;4.60;;;2.35;;
27839;SDS011;15207;42.182;24.308;2023-04-12T06:43:24;5.50;;;2.22;;
27839;SDS011;15207;42.182;24.308;2023-04-12T06:45:50;2.73;;;2.10;;
27839;SDS011;15207;42.182;24.308;2023-04-12T06:48:15;4.67;;;2.43;;
27839;SDS011;15207;42.182;24.308;2023-04-12T06:50:41;4.22;;;2.72;;
27839;SDS011;15207;42.182;24.308;2023-04-12T06:53:06;5.72;;;3.20;;
27839;SDS011;15207;42.182;24.308;2023-04-12T06:55:33;5.03;;;2.88;;
27839;SDS011;15207;42.182;24.308;2023-04-12T06:57:58;4.35;;;3.28;;
27839;SDS011;15207;42.182;24.308;2023-04-12T07:00:24;7.25;;;3.40;;
27839;SDS011;15207;42.182;24.308;2023-04-12T07:02:50;6.10;;;3.42;;
27839;SDS011;15207;42.182;24.308;2023-04-12T07:05:15;11.65;;;3.60;;
27839;SDS011;15207;42.182;24.308;2023-04-12T07:07:41;4.63;;;3.03;;
27839;SDS011;15207;42.182;24.308;2023-04-12T07:10:08;3.83;;;2.63;;
27839;SDS011;15207;42.182;24.308;2023-04-12T07:12:33;3.50;;;2.10;;
27839;SDS011;15207;42.182;24.308;2023-04-12T07:14:59;3.33;;;2.60;;
27839;SDS011;15207;42.182;24.308;2023-04-12T07:17:25;5.85;;;2.92;;
27839;SDS011;15207;42.182;24.308;2023-04-12T07:19:52;3.65;;;2.17;;
27839;SDS011;15207;42.182;24.308;2023-04-12T07:22:18;4.30;;;2.70;;
27839;SDS011;15207;42.182;24.308;2023-04-12T07:24:44;3.15;;;2.50;;
27839;SDS011;15207;42.182;24.308;2023-04-12T07:27:09;2.40;;;1.90;;
27839;SDS011;15207;42.182;24.308;2023-04-12T07:29:35;4.60;;;1.93;;
27839;SDS011;15207;42.182;24.308;2023-04-12T07:32:01;3.50;;;1.95;;
27839;SDS011;15207;42.182;24.308;2023-04-12T07:34:27;3.15;;;2.05;;
27839;SDS011;15207;42.182;24.308;2023-04-12T07:36:53;3.15;;;2.00;;
27839;SDS011;15207;42.182;24.308;2023-04-12T07:39:18;6.50;;;2.00;;
27839;SDS011;15207;42.182;24.308;2023-04-12T07:44:12;2.63;;;2.10;;
27839;SDS011;15207;42.182;24.308;2023-04-12T07:49:04;6.20;;;2.50;;
27839;SDS011;15207;42.182;24.308;2023-04-12T07:51:30;3.20;;;2.40;;
27839;SDS011;15207;42.182;24.308;2023-04-12T07:58:48;5.50;;;2.10;;
27839;SDS011;15207;42.182;24.308;2023-04-12T08:01:14;3.28;;;2.20;;
27839;SDS011;15207;42.182;24.308;2023-04-12T08:03:40;5.00;;;2.70;;
27839;SDS011;15207;42.182;24.308;2023-04-12T08:06:05;3.90;;;2.58;;
27839;SDS011;15207;42.182;24.308;2023-04-12T08:08:32;4.10;;;2.40;;
27839;SDS011;15207;42.182;24.308;2023-04-12T08:10:58;3.35;;;1.90;;
27839;SDS011;15207;42.182;24.308;2023-04-12T08:13:25;2.73;;;1.97;;
27839;SDS011;15207;42.182;24.308;2023-04-12T08:15:50;2.15;;;1.55;;
27839;SDS011;15207;42.182;24.308;2023-04-12T08:18:16;3.27;;;2.00;;
27839;SDS011;15207;42.182;24.308;2023-04-12T08:20:42;6.40;;;2.00;;
27839;SDS011;15207;42.182;24.308;2023-04-12T08:23:09;3.25;;;2.08;;
27839;SDS011;15207;42.182;24.308;2023-04-12T08:25:37;4.68;;;1.95;;
27839;SDS011;15207;42.182;24.308;2023-04-12T08:28:03;4.20;;;2.10;;
27839;SDS011;15207;42.182;24.308;2023-04-12T08:30:29;3.00;;;1.90;;
27839;SDS011;15207;42.182;24.308;2023-04-12T08:32:55;5.53;;;2.08;;
27839;SDS011;15207;42.182;24.308;2023-04-12T08:35:21;2.80;;;2.20;;
27839;SDS011;15207;42.182;24.308;2023-04-12T08:37:47;2.50;;;1.77;;
27839;SDS011;15207;42.182;24.308;2023-04-12T08:40:13;5.07;;;1.90;;
27839;SDS011;15207;42.182;24.308;2023-04-12T08:42:39;8.15;;;2.05;;
27839;SDS011;15207;42.182;24.308;2023-04-12T08:45:05;2.07;;;1.60;;
27839;SDS011;15207;42.182;24.308;2023-04-12T08:47:39;3.47;;;1.90;;
27839;SDS011;15207;42.182;24.308;2023-04-12T08:50:06;2.10;;;1.50;;
27839;SDS011;15207;42.182;24.308;2023-04-12T08:52:34;1.80;;;1.50;;
27839;SDS011;15207;42.182;24.308;2023-04-12T08:55:01;4.15;;;1.45;;
27839;SDS011;15207;42.182;24.308;2023-04-12T08:57:28;1.80;;;1.40;;
27839;SDS011;15207;42.182;24.308;2023-04-12T08:59:53;1.90;;;1.50;;
27839;SDS011;15207;42.182;24.308;2023-04-12T09:02:20;2.75;;;2.00;;
27839;SDS011;15207;42.182;24.308;2023-04-12T09:04:46;2.17;;;1.90;;
27839;SDS011;15207;42.182;24.308;2023-04-12T09:07:15;3.50;;;2.10;;
27839;SDS011;15207;42.182;24.308;2023-04-12T09:09:44;3.58;;;2.00;;
27839;SDS011;15207;42.182;24.308;2023-04-12T09:12:13;3.10;;;1.48;;
27839;SDS011;15207;42.182;24.308;2023-04-12T09:14:40;4.57;;;1.98;;
27839;SDS011;15207;42.182;24.308;2023-04-12T09:22:37;2.90;;;1.60;;
27839;SDS011;15207;42.182;24.308;2023-04-12T09:25:09;2.17;;;1.50;;
27839;SDS011;15207;42.182;24.308;2023-04-12T09:27:45;2.97;;;1.90;;
27839;SDS011;15207;42.182;24.308;2023-04-12T09:30:21;2.50;;;1.60;;
27839;SDS011;15207;42.182;24.308;2023-04-12T09:32:46;4.07;;;1.48;;
27839;SDS011;15207;42.182;24.308;2023-04-12T09:35:15;2.55;;;1.67;;
27839;SDS011;15207;42.182;24.308;2023-04-12T09:37:40;2.60;;;1.50;;
27839;SDS011;15207;42.182;24.308;2023-04-12T09:40:08;2.73;;;1.73;;
27839;SDS011;15207;42.182;24.308;2023-04-12T09:42:55;4.53;;;1.52;;
27839;SDS011;15207;42.182;24.308;2023-04-12T09:45:21;1.50;;;1.25;;
27839;SDS011;15207;42.182;24.308;2023-04-12T09:47:49;2.55;;;1.20;;
27839;SDS011;15207;42.182;24.308;2023-04-12T09:52:48;2.42;;;1.67;;
27839;SDS011;15207;42.182;24.308;2023-04-12T09:55:14;1.57;;;1.20;;
27839;SDS011;15207;42.182;24.308;2023-04-12T09:57:40;1.60;;;1.30;;
27839;SDS011;15207;42.182;24.308;2023-04-12T10:00:08;2.85;;;1.65;;
27839;SDS011;15207;42.182;24.308;2023-04-12T10:02:39;1.88;;;1.40;;
27839;SDS011;15207;42.182;24.308;2023-04-12T10:05:06;2.30;;;1.50;;
27839;SDS011;15207;42.182;24.308;2023-04-12T10:07:43;2.40;;;1.50;;
27839;SDS011;15207;42.182;24.308;2023-04-12T10:10:11;1.65;;;1.20;;
27839;SDS011;15207;42.182;24.308;2023-04-12T10:12:39;2.03;;;1.42;;
27839;SDS011;15207;42.182;24.308;2023-04-12T10:15:06;2.65;;;1.75;;
27839;SDS011;15207;42.182;24.308;2023-04-12T10:17:43;1.45;;;1.30;;
27839;SDS011;15207;42.182;24.308;2023-04-12T10:20:10;2.15;;;1.48;;
27839;SDS011;15207;42.182;24.308;2023-04-12T10:22:46;1.65;;;1.13;;
27839;SDS011;15207;42.182;24.308;2023-04-12T10:25:13;2.33;;;1.23;;
27839;SDS011;15207;42.182;24.308;2023-04-12T10:27:41;3.65;;;1.30;;
27839;SDS011;15207;42.182;24.308;2023-04-12T10:30:21;2.20;;;1.45;;
27839;SDS011;15207;42.182;24.308;2023-04-12T10:38:12;3.15;;;1.52;;
27839;SDS011;15207;42.182;24.308;2023-04-12T10:41:05;1.92;;;1.38;;
27839;SDS011;15207;42.182;24.308;2023-04-12T10:43:45;1.50;;;1.10;;
27839;SDS011;15207;42.182;24.308;2023-04-12T10:49:10;1.90;;;1.30;;
27839;SDS011;15207;42.182;24.308;2023-04-12T10:51:39;1.15;;;1.00;;
27839;SDS011;15207;42.182;24.308;2023-04-12T10:56:51;1.67;;;1.00;;
27839;SDS011;15207;42.182;24.308;2023-04-12T10:59:16;2.75;;;1.20;;
27839;SDS011;15207;42.182;24.308;2023-04-12T11:04:33;2.00;;;1.30;;
27839;SDS011;15207;42.182;24.308;2023-04-12T11:07:00;1.90;;;1.40;;
27839;SDS011;15207;42.182;24.308;2023-04-12T11:14:35;1.45;;;0.98;;
27839;SDS011;15207;42.182;24.308;2023-04-12T11:19:45;1.30;;;0.88;;
27839;SDS011;15207;42.182;24.308;2023-04-12T11:22:16;1.60;;;0.90;;
27839;SDS011;15207;42.182;24.308;2023-04-12T11:24:52;0.60;;;0.60;;
27839;SDS011;15207;42.182;24.308;2023-04-12T11:27:25;2.10;;;0.90;;
27839;SDS011;15207;42.182;24.308;2023-04-12T11:29:52;1.87;;;0.70;;
27839;SDS011;15207;42.182;24.308;2023-04-12T11:32:28;1.40;;;0.85;;
27839;SDS011;15207;42.182;24.308;2023-04-12T11:34:55;0.65;;;0.63;;
27839;SDS011;15207;42.182;24.308;2023-04-12T11:37:22;0.80;;;0.80;;
27839;SDS011;15207;42.182;24.308;2023-04-12T11:39:52;0.83;;;0.80;;
27839;SDS011;15207;42.182;24.308;2023-04-12T11:42:22;0.95;;;0.88;;
27839;SDS011;15207;42.182;24.308;2023-04-12T11:44:48;3.93;;;1.50;;
27839;SDS011;15207;42.182;24.308;2023-04-12T11:47:19;1.10;;;0.90;;
27839;SDS011;15207;42.182;24.308;2023-04-12T11:49:49;1.20;;;1.00;;
27839;SDS011;15207;42.182;24.308;2023-04-12T11:52:17;1.35;;;0.80;;
27839;SDS011;15207;42.182;24.308;2023-04-12T11:54:44;2.78;;;1.00;;
27839;SDS011;15207;42.182;24.308;2023-04-12T11:57:15;1.20;;;0.90;;
27839;SDS011;15207;42.182;24.308;2023-04-12T11:59:44;0.90;;;0.70;;
27839;SDS011;15207;42.182;24.308;2023-04-12T12:02:11;1.00;;;0.85;;
27839;SDS011;15207;42.182;24.308;2023-04-12T12:04:38;1.20;;;0.90;;
27839;SDS011;15207;42.182;24.308;2023-04-12T12:07:06;3.50;;;0.70;;
27839;SDS011;15207;42.182;24.308;2023-04-12T12:09:32;0.73;;;0.73;;
27839;SDS011;15207;42.182;24.308;2023-04-12T12:11:58;2.20;;;0.90;;
27839;SDS011;15207;42.182;24.308;2023-04-12T12:14:25;0.60;;;0.60;;
27839;SDS011;15207;42.182;24.308;2023-04-12T12:16:58;0.80;;;0.70;;
27839;SDS011;15207;42.182;24.308;2023-04-12T12:19:36;0.75;;;0.70;;
27839;SDS011;15207;42.182;24.308;2023-04-12T12:24:43;0.80;;;0.70;;
27839;SDS011;15207;42.182;24.308;2023-04-12T12:29:37;1.50;;;0.90;;
27839;SDS011;15207;42.182;24.308;2023-04-12T12:32:10;2.05;;;0.90;;
27839;SDS011;15207;42.182;24.308;2023-04-12T12:34:37;0.90;;;0.50;;
27839;SDS011;15207;42.182;24.308;2023-04-12T12:37:07;2.05;;;0.63;;
27839;SDS011;15207;42.182;24.308;2023-04-12T12:39:36;0.70;;;0.60;;
27839;SDS011;15207;42.182;24.308;2023-04-12T12:42:02;0.90;;;0.70;;
27839;SDS011;15207;42.182;24.308;2023-04-12T12:44:30;0.82;;;0.60;;
27839;SDS011;15207;42.182;24.308;2023-04-12T12:46:57;0.68;;;0.68;;
27839;SDS011;15207;42.182;24.308;2023-04-12T12:49:23;1.05;;;0.93;;
27839;SDS011;15207;42.182;24.308;2023-04-12T12:51:49;0.80;;;0.60;;
27839;SDS011;15207;42.182;24.308;2023-04-12T12:54:15;1.05;;;0.70;;
27839;SDS011;15207;42.182;24.308;2023-04-12T12:56:41;1.08;;;0.82;;
27839;SDS011;15207;42.182;24.308;2023-04-12T12:59:06;1.58;;;0.90;;
27839;SDS011;15207;42.182;24.308;2023-04-12T13:01:32;1.10;;;0.70;;
27839;SDS011;15207;42.182;24.308;2023-04-12T13:03:57;1.80;;;1.00;;
27839;SDS011;15207;42.182;24.308;2023-04-12T13:06:23;0.70;;;0.70;;
27839;SDS011;15207;42.182;24.308;2023-04-12T13:08:52;1.10;;;0.90;;
27839;SDS011;15207;42.182;24.308;2023-04-12T13:11:19;3.55;;;1.30;;
27839;SDS011;15207;42.182;24.308;2023-04-12T13:13:45;4.38;;;0.88;;
27839;SDS011;15207;42.182;24.308;2023-04-12T13:16:11;1.05;;;0.95;;
27839;SDS011;15207;42.182;24.308;2023-04-12T13:18:37;0.77;;;0.70;;
27839;SDS011;15207;42.182;24.308;2023-04-12T13:21:03;5.80;;;1.00;;
27839;SDS011;15207;42.182;24.308;2023-04-12T13:23:28;1.10;;;0.70;;
27839;SDS011;15207;42.182;24.308;2023-04-12T13:25:54;1.20;;;0.75;;
27839;SDS011;15207;42.182;24.308;2023-04-12T13:28:19;1.50;;;0.80;;
27839;SDS011;15207;42.182;24.308;2023-04-12T13:30:45;0.80;;;0.70;;
27839;SDS011;15207;42.182;24.308;2023-04-12T13:33:12;0.70;;;0.63;;
27839;SDS011;15207;42.182;24.308;2023-04-12T13:35:38;2.15;;;0.95;;
27839;SDS011;15207;42.182;24.308;2023-04-12T13:38:03;1.10;;;0.80;;
27839;SDS011;15207;42.182;24.308;2023-04-12T13:42:55;1.25;;;0.70;;
27839;SDS011;15207;42.182;24.308;2023-04-12T13:45:21;2.35;;;0.60;;
27839;SDS011;15207;42.182;24.308;2023-04-12T13:47:46;0.60;;;0.60;;
27839;SDS011;15207;42.182;24.308;2023-04-12T13:50:12;1.10;;;0.60;;
27839;SDS011;15207;42.182;24.308;2023-04-12T13:52:37;0.80;;;0.60;;
27839;SDS011;15207;42.182;24.308;2023-04-12T13:55:03;0.90;;;0.60;;
27839;SDS011;15207;42.182;24.308;2023-04-12T13:57:32;1.40;;;0.70;;
27839;SDS011;15207;42.182;24.308;2023-04-12T13:59:58;1.20;;;1.10;;
27839;SDS011;15207;42.182;24.308;2023-04-12T14:02:24;3.40;;;0.70;;
27839;SDS011;15207;42.182;24.308;2023-04-12T14:04:50;1.10;;;0.80;;
27839;SDS011;15207;42.182;24.308;2023-04-12T14:07:17;0.77;;;0.68;;
27839;SDS011;15207;42.182;24.308;2023-04-12T14:09:42;3.20;;;0.90;;
27839;SDS011;15207;42.182;24.308;2023-04-12T14:12:08;2.92;;;0.95;;
27839;SDS011;15207;42.182;24.308;2023-04-12T14:14:34;1.40;;;0.90;;
27839;SDS011;15207;42.182;24.308;2023-04-12T14:17:00;1.20;;;0.80;;
27839;SDS011;15207;42.182;24.308;2023-04-12T14:19:26;1.20;;;0.57;;
27839;SDS011;15207;42.182;24.308;2023-04-12T14:21:51;1.58;;;0.70;;
27839;SDS011;15207;42.182;24.308;2023-04-12T14:24:18;1.40;;;0.80;;
27839;SDS011;15207;42.182;24.308;2023-04-12T14:26:45;1.00;;;0.70;;
27839;SDS011;15207;42.182;24.308;2023-04-12T14:29:12;0.60;;;0.60;;
27839;SDS011;15207;42.182;24.308;2023-04-12T14:31:39;1.40;;;0.80;;
27839;SDS011;15207;42.182;24.308;2023-04-12T14:34:05;1.00;;;0.90;;
27839;SDS011;15207;42.182;24.308;2023-04-12T14:36:32;0.87;;;0.70;;
27839;SDS011;15207;42.182;24.308;2023-04-12T14:38:58;0.88;;;0.80;;
27839;SDS011;15207;42.182;24.308;2023-04-12T14:41:25;1.08;;;0.70;;
27839;SDS011;15207;42.182;24.308;2023-04-12T14:43:51;0.80;;;0.60;;
27839;SDS011;15207;42.182;24.308;2023-04-12T14:46:16;5.10;;;0.80;;
27839;SDS011;15207;42.182;24.308;2023-04-12T14:51:08;1.35;;;0.75;;
27839;SDS011;15207;42.182;24.308;2023-04-12T14:53:34;2.30;;;0.70;;
27839;SDS011;15207;42.182;24.308;2023-04-12T14:56:00;2.20;;;1.00;;
27839;SDS011;15207;42.182;24.308;2023-04-12T14:58:27;1.50;;;0.90;;
27839;SDS011;15207;42.182;24.308;2023-04-12T15:00:56;1.30;;;0.60;;
27839;SDS011;15207;42.182;24.308;2023-04-12T15:03:34;1.13;;;0.60;;
27839;SDS011;15207;42.182;24.308;2023-04-12T15:06:00;1.25;;;0.75;;
27839;SDS011;15207;42.182;24.308;2023-04-12T15:08:25;1.08;;;0.77;;
27839;SDS011;15207;42.182;24.308;2023-04-12T15:10:53;1.67;;;0.80;;
27839;SDS011;15207;42.182;24.308;2023-04-12T15:13:18;2.53;;;1.00;;
27839;SDS011;15207;42.182;24.308;2023-04-12T15:15:45;2.28;;;0.93;;
27839;SDS011;15207;42.182;24.308;2023-04-12T15:18:11;1.65;;;1.10;;
27839;SDS011;15207;42.182;24.308;2023-04-12T15:20:36;1.60;;;0.80;;
27839;SDS011;15207;42.182;24.308;2023-04-12T15:23:02;1.52;;;0.70;;
27839;SDS011;15207;42.182;24.308;2023-04-12T15:25:27;0.50;;;0.50;;
27839;SDS011;15207;42.182;24.308;2023-04-12T15:30:20;1.52;;;0.80;;
27839;SDS011;15207;42.182;24.308;2023-04-12T15:32:46;2.10;;;0.83;;
27839;SDS011;15207;42.182;24.308;2023-04-12T15:35:11;1.08;;;0.70;;
27839;SDS011;15207;42.182;24.308;2023-04-12T15:37:37;0.60;;;0.60;;
27839;SDS011;15207;42.182;24.308;2023-04-12T15:40:04;2.70;;;0.70;;
27839;SDS011;15207;42.182;24.308;2023-04-12T15:42:37;1.00;;;0.70;;
27839;SDS011;15207;42.182;24.308;2023-04-12T15:45:08;1.00;;;0.70;;
27839;SDS011;15207;42.182;24.308;2023-04-12T15:47:34;0.70;;;0.60;;
27839;SDS011;15207;42.182;24.308;2023-04-12T15:50:01;0.60;;;0.50;;
27839;SDS011;15207;42.182;24.308;2023-04-12T15:52:28;0.70;;;0.65;;